Time;durP1;ratioP1;P1;durP2;ratioP2;P2;SDS_P1;SDS_P2;PMS_P1;PMS_P2;Temp;Humidity;BMP_temperature;BMP_pressure;BME280_temperature;BME280_humidity;BME280_pressure;Samples;Min_cycle;Max_cycle;Signal;HPM_P1;HPM_P2
2022/04/20 00:01:13;;;;;;;8.02;3.10;;;8.00;99.90;;;;;;5074712;28;20048;-45
2022/04/20 00:03:39;;;;;;;10.23;3.28;;;8.00;99.90;;;;;;5074500;28;20076;-45
2022/04/20 00:06:05;;;;;;;6.70;2.97;;;8.00;99.90;;;;;;5074507;28;20040;-44
2022/04/20 00:08:32;;;;;;;6.88;3.35;;;8.00;99.90;;;;;;5073304;28;20045;-46
2022/04/20 00:10:58;;;;;;;7.57;2.95;;;7.90;99.90;;;;;;5072393;28;20091;-46
2022/04/20 00:13:24;;;;;;;7.00;3.22;;;7.90;99.90;;;;;;5074460;28;20076;-45
2022/04/20 00:15:50;;;;;;;5.85;3.25;;;7.90;99.90;;;;;;5074461;28;20098;-46
2022/04/20 00:18:16;;;;;;;6.95;2.85;;;7.80;99.90;;;;;;5073028;28;20041;-46
2022/04/20 00:20:42;;;;;;;6.05;2.97;;;7.80;99.90;;;;;;5074087;28;20046;-45
2022/04/20 00:23:07;;;;;;;6.90;2.75;;;7.80;99.90;;;;;;5066217;28;20056;-48
2022/04/20 00:25:33;;;;;;;7.53;3.35;;;7.80;99.90;;;;;;5054356;28;20040;-47
2022/04/20 00:27:59;;;;;;;6.75;3.03;;;7.70;99.90;;;;;;5054151;28;20057;-45
2022/04/20 00:30:24;;;;;;;7.63;3.40;;;7.70;99.90;;;;;;5054124;28;20079;-46
2022/04/20 00:32:50;;;;;;;6.78;3.20;;;7.70;99.90;;;;;;5053853;28;20040;-47
2022/04/20 00:35:16;;;;;;;7.53;3.20;;;7.60;99.90;;;;;;5053921;28;20048;-45
2022/04/20 00:37:42;;;;;;;6.60;3.10;;;7.60;99.90;;;;;;5053956;28;20045;-45
2022/04/20 00:40:08;;;;;;;7.80;3.10;;;7.60;99.90;;;;;;5054095;28;20049;-45
2022/04/20 00:42:38;;;;;;;5.68;2.85;;;7.60;99.90;;;;;;5053960;28;20106;-45
2022/04/20 00:45:05;;;;;;;6.78;2.90;;;7.50;99.90;;;;;;5071287;28;20048;-45
2022/04/20 00:47:32;;;;;;;8.20;3.13;;;7.50;99.90;;;;;;5073749;28;20044;-45
2022/04/20 00:49:58;;;;;;;6.53;3.25;;;7.60;99.90;;;;;;5073648;28;20036;-46
2022/04/20 00:52:24;;;;;;;6.80;3.90;;;7.60;99.90;;;;;;5073931;28;20123;-45
2022/04/20 00:54:50;;;;;;;6.50;3.35;;;7.50;99.90;;;;;;5073707;28;20127;-45
2022/04/20 00:57:15;;;;;;;7.65;3.72;;;7.50;99.90;;;;;;5073574;28;20389;-47
2022/04/20 00:59:42;;;;;;;6.00;3.00;;;7.40;99.90;;;;;;5072357;28;20494;-45
2022/04/20 01:02:08;;;;;;;7.57;3.40;;;7.50;99.90;;;;;;5073348;28;20036;-46
2022/04/20 01:04:34;;;;;;;6.78;3.50;;;7.50;99.90;;;;;;5073356;28;20063;-46
2022/04/20 01:07:09;;;;;;;8.80;3.55;;;7.40;99.90;;;;;;5073543;28;20052;-44
2022/04/20 01:09:35;;;;;;;7.63;3.53;;;7.40;99.90;;;;;;5073133;28;20492;-45
2022/04/20 01:12:02;;;;;;;9.23;3.53;;;7.40;99.90;;;;;;5071893;28;20097;-44
2022/04/20 01:14:28;;;;;;;6.43;3.45;;;7.40;99.90;;;;;;5073094;28;20043;-44
2022/04/20 01:16:53;;;;;;;6.97;3.63;;;7.40;99.90;;;;;;5072984;28;20491;-45
2022/04/20 01:19:19;;;;;;;9.98;3.88;;;7.40;99.90;;;;;;5073350;28;20036;-44
2022/04/20 01:21:45;;;;;;;7.05;3.70;;;7.40;99.90;;;;;;5073271;28;20090;-45
2022/04/20 01:24:11;;;;;;;8.73;3.40;;;7.30;99.90;;;;;;5056187;28;20076;-46
2022/04/20 01:26:39;;;;;;;7.68;3.33;;;7.30;99.90;;;;;;5053062;28;20041;-45
2022/04/20 01:29:07;;;;;;;7.00;3.10;;;7.30;99.90;;;;;;5052986;28;20040;-46
2022/04/20 01:31:33;;;;;;;6.45;3.50;;;7.30;99.90;;;;;;5052805;28;20053;-46
2022/04/20 01:33:58;;;;;;;8.18;3.42;;;7.30;99.90;;;;;;5052807;28;20094;-50
2022/04/20 01:36:24;;;;;;;8.75;3.67;;;7.30;99.90;;;;;;5052891;28;20076;-45
2022/04/20 01:38:50;;;;;;;8.73;4.30;;;7.20;99.90;;;;;;5052544;28;20053;-44
2022/04/20 01:41:15;;;;;;;7.97;3.35;;;7.20;99.90;;;;;;5052837;28;20044;-44
2022/04/20 01:43:42;;;;;;;7.05;3.60;;;7.10;99.90;;;;;;5058929;28;20600;-46
2022/04/20 01:46:07;;;;;;;7.18;3.72;;;7.10;99.90;;;;;;5071204;28;20079;-46
2022/04/20 01:48:33;;;;;;;7.30;3.80;;;7.10;99.90;;;;;;5072751;28;20048;-47
2022/04/20 01:53:43;;;;;;;9.15;4.00;;;7.10;99.90;;;;;;5072373;28;20094;-46
2022/04/20 01:56:09;;;;;;;6.93;3.50;;;7.10;99.90;;;;;;5072201;28;20037;-46
2022/04/20 01:58:34;;;;;;;8.23;3.92;;;7.00;99.90;;;;;;5071996;28;20041;-47
2022/04/20 02:02:34;;;;;;;7.90;3.58;;;7.10;99.90;;;;;;5072371;28;20047;-46
2022/04/20 02:03:47;;;;;;;8.13;3.92;;;7.00;99.90;;;;;;5072304;28;20052;-46
2022/04/20 02:06:14;;;;;;;6.78;3.35;;;7.00;99.90;;;;;;5072307;28;20051;-46
2022/04/20 02:08:40;;;;;;;7.90;3.60;;;7.00;99.90;;;;;;5072278;28;20439;-47
2022/04/20 02:11:06;;;;;;;7.05;3.63;;;7.00;99.90;;;;;;5072179;28;20054;-47
2022/04/20 02:13:32;;;;;;;7.55;3.67;;;7.00;99.90;;;;;;5072384;28;20045;-47
2022/04/20 02:15:58;;;;;;;7.00;3.50;;;7.00;99.90;;;;;;5072618;28;20423;-46
2022/04/20 02:18:24;;;;;;;6.82;3.78;;;7.00;99.90;;;;;;5072235;28;20037;-46
2022/04/20 02:20:50;;;;;;;7.50;3.75;;;6.90;99.90;;;;;;5070897;28;20118;-46
2022/04/20 02:23:15;;;;;;;9.15;3.88;;;6.90;99.90;;;;;;5062771;28;20041;-47
2022/04/20 02:25:41;;;;;;;8.52;3.65;;;6.90;99.90;;;;;;5051936;28;20069;-47
2022/04/20 02:28:07;;;;;;;8.23;3.50;;;6.80;99.90;;;;;;5052230;28;20041;-46
2022/04/20 02:30:32;;;;;;;8.30;3.80;;;6.80;99.90;;;;;;5052190;28;20041;-46
2022/04/20 02:32:58;;;;;;;7.10;3.58;;;6.70;99.90;;;;;;5051571;28;20124;-47
2022/04/20 02:35:24;;;;;;;7.72;3.50;;;6.70;99.90;;;;;;5052057;28;20112;-46
2022/04/20 02:37:49;;;;;;;7.68;3.72;;;6.70;99.90;;;;;;5051736;28;20511;-46
2022/04/20 02:40:15;;;;;;;7.38;3.63;;;6.70;99.90;;;;;;5051844;28;20071;-47
2022/04/20 02:42:41;;;;;;;8.63;3.70;;;6.70;99.90;;;;;;5052005;28;20125;-46
2022/04/20 02:45:07;;;;;;;7.65;3.83;;;6.60;99.90;;;;;;5070003;28;20032;-49
2022/04/20 02:47:33;;;;;;;6.88;3.85;;;6.60;99.90;;;;;;5071632;28;20488;-47
2022/04/20 02:49:58;;;;;;;8.07;3.60;;;6.50;99.90;;;;;;5071779;28;20056;-48
2022/04/20 02:52:24;;;;;;;8.20;3.47;;;6.50;99.90;;;;;;5071705;28;20068;-48
2022/04/20 02:54:50;;;;;;;6.82;3.42;;;6.50;99.90;;;;;;5071705;28;20051;-48
2022/04/20 02:57:15;;;;;;;8.27;3.90;;;6.50;99.90;;;;;;5071968;28;20538;-48
2022/04/20 02:59:41;;;;;;;8.10;4.03;;;6.50;99.90;;;;;;5071914;28;20040;-47
2022/04/20 03:02:07;;;;;;;9.50;5.97;;;6.40;99.90;;;;;;5071723;28;20432;-47
2022/04/20 03:04:32;;;;;;;9.02;3.95;;;6.40;99.90;;;;;;5071683;28;20048;-47
2022/04/20 03:06:58;;;;;;;8.80;4.10;;;6.40;99.90;;;;;;5071686;28;20378;-46
2022/04/20 03:09:24;;;;;;;9.75;4.43;;;6.30;99.90;;;;;;5071490;28;20090;-47
2022/04/20 03:11:49;;;;;;;9.00;4.22;;;6.30;99.90;;;;;;5071558;28;20050;-48
2022/04/20 03:14:18;;;;;;;7.05;3.88;;;6.30;99.90;;;;;;5071639;28;20036;-48
2022/04/20 03:16:44;;;;;;;8.75;4.68;;;6.30;99.90;;;;;;5071612;28;20048;-47
2022/04/20 03:19:09;;;;;;;8.63;3.97;;;6.30;99.90;;;;;;5071639;28;20050;-47
2022/04/20 03:21:35;;;;;;;8.18;4.18;;;6.20;99.90;;;;;;5071600;28;20380;-46
2022/04/20 03:24:01;;;;;;;9.05;4.18;;;6.20;99.90;;;;;;5055662;28;20041;-48
2022/04/20 03:26:26;;;;;;;10.65;4.22;;;6.10;99.90;;;;;;5051664;28;20037;-49
2022/04/20 03:28:52;;;;;;;8.43;3.97;;;6.10;99.90;;;;;;5051497;28;20040;-51
2022/04/20 03:31:18;;;;;;;7.75;4.38;;;6.10;99.90;;;;;;5051425;28;20052;-49
2022/04/20 03:33:44;;;;;;;8.57;3.83;;;6.10;99.90;;;;;;5051377;28;20048;-46
2022/04/20 03:36:10;;;;;;;6.97;3.53;;;6.10;99.90;;;;;;5051205;28;20033;-47
2022/04/20 03:38:36;;;;;;;8.82;3.88;;;6.10;99.90;;;;;;5051174;28;20132;-49
2022/04/20 03:41:05;;;;;;;8.10;4.25;;;6.10;99.90;;;;;;5051425;28;20115;-49
2022/04/20 03:43:31;;;;;;;7.35;4.03;;;6.10;99.90;;;;;;5056032;28;20113;-53
2022/04/20 03:45:57;;;;;;;8.68;3.90;;;6.00;99.90;;;;;;5073644;28;20040;-54
2022/04/20 03:48:23;;;;;;;7.32;3.78;;;6.00;99.90;;;;;;5074882;28;20067;-52
2022/04/20 03:50:50;;;;;;;8.23;3.83;;;6.00;99.90;;;;;;5074750;28;20040;-52
2022/04/20 03:53:16;;;;;;;8.98;4.30;;;6.00;99.90;;;;;;5074489;28;20044;-54
2022/04/20 03:55:41;;;;;;;8.68;4.05;;;6.00;99.90;;;;;;5074663;28;20056;-51
2022/04/20 03:58:07;;;;;;;9.35;5.07;;;6.00;99.90;;;;;;5074737;28;20045;-51
2022/04/20 04:00:33;;;;;;;8.68;4.10;;;6.00;99.90;;;;;;5074442;28;20123;-52
2022/04/20 04:02:59;;;;;;;6.70;3.53;;;5.90;99.90;;;;;;5074742;28;20048;-50
2022/04/20 04:05:24;;;;;;;7.53;4.40;;;5.90;99.90;;;;;;5073521;28;20036;-51
2022/04/20 04:07:50;;;;;;;8.65;4.63;;;5.90;99.90;;;;;;5074346;28;20041;-51
2022/04/20 04:10:16;;;;;;;8.30;4.50;;;5.90;99.90;;;;;;5073862;28;20090;-50
2022/04/20 04:12:41;;;;;;;7.25;3.97;;;5.90;99.90;;;;;;5074543;28;20504;-50
2022/04/20 04:15:07;;;;;;;8.98;4.13;;;5.90;99.90;;;;;;5074566;28;20080;-51
2022/04/20 04:17:34;;;;;;;8.68;4.00;;;5.90;99.90;;;;;;5074165;28;20039;-51
2022/04/20 04:19:59;;;;;;;7.32;4.32;;;5.90;99.90;;;;;;5074625;28;20036;-50
2022/04/20 04:22:25;;;;;;;7.80;3.47;;;5.80;99.90;;;;;;5070900;28;20052;-51
2022/04/20 04:24:51;;;;;;;6.90;3.75;;;5.90;99.90;;;;;;5054501;28;20401;-51
2022/04/20 04:27:17;;;;;;;9.32;3.95;;;5.90;99.90;;;;;;5054458;28;20052;-53
2022/04/20 04:29:42;;;;;;;9.23;4.10;;;5.90;99.90;;;;;;5054308;28;20632;-52
2022/04/20 04:32:08;;;;;;;7.32;3.72;;;5.80;99.90;;;;;;5054182;28;20055;-50
2022/04/20 04:34:34;;;;;;;8.00;4.30;;;5.90;99.90;;;;;;5053988;28;20066;-52
2022/04/20 04:37:00;;;;;;;8.75;4.00;;;5.80;99.90;;;;;;5053964;28;20394;-54
2022/04/20 04:39:29;;;;;;;8.45;4.10;;;5.80;99.90;;;;;;5053790;28;20056;-50
2022/04/20 04:42:02;;;;;;;7.72;4.03;;;5.80;99.90;;;;;;5054104;28;20504;-52
2022/04/20 04:44:28;;;;;;;7.78;4.00;;;5.90;99.90;;;;;;5065256;28;20055;-51
2022/04/20 04:49:39;;;;;;;6.60;3.60;;;5.90;99.90;;;;;;5072387;28;20504;-54
2022/04/20 04:52:11;;;;;;;7.15;4.10;;;5.90;99.90;;;;;;5074124;28;20041;-51
2022/04/20 04:54:37;;;;;;;8.60;3.90;;;5.90;99.90;;;;;;5073867;28;20040;-52
2022/04/20 04:57:03;;;;;;;7.55;4.03;;;6.00;99.90;;;;;;5073319;28;20040;-52
2022/04/20 04:59:29;;;;;;;8.52;4.45;;;6.00;99.90;;;;;;5073797;28;20074;-51
2022/04/20 05:01:54;;;;;;;6.70;3.80;;;6.10;99.90;;;;;;5073525;28;20044;-51
2022/04/20 05:04:20;;;;;;;9.40;4.22;;;6.10;99.90;;;;;;5073699;28;20080;-51
2022/04/20 05:06:45;;;;;;;7.43;3.92;;;6.00;99.90;;;;;;5072216;28;20048;-51
2022/04/20 05:09:11;;;;;;;9.50;4.10;;;6.00;99.90;;;;;;5073318;28;20085;-51
2022/04/20 05:11:37;;;;;;;11.38;4.25;;;6.00;99.90;;;;;;5073538;28;20051;-51
2022/04/20 05:14:03;;;;;;;7.80;4.07;;;6.10;99.90;;;;;;5073383;28;20052;-52
2022/04/20 05:16:29;;;;;;;7.35;3.83;;;6.20;99.90;;;;;;5073317;28;20036;-54
2022/04/20 05:18:54;;;;;;;8.50;4.68;;;6.20;99.90;;;;;;5071969;28;20044;-54
2022/04/20 05:21:20;;;;;;;8.65;4.05;;;6.40;99.90;;;;;;5073264;28;20451;-51
2022/04/20 05:23:46;;;;;;;8.20;4.72;;;6.40;99.90;;;;;;5072060;28;20051;-51
2022/04/20 05:26:12;;;;;;;8.60;4.15;;;6.40;99.90;;;;;;5073215;28;20048;-55
2022/04/20 05:28:37;;;;;;;9.02;4.20;;;6.50;99.90;;;;;;5073077;28;20043;-56
2022/04/20 05:31:03;;;;;;;8.35;4.30;;;6.60;99.90;;;;;;5072928;28;20098;-56
2022/04/20 05:33:29;;;;;;;7.32;3.97;;;6.60;99.90;;;;;;5073032;28;20047;-55
2022/04/20 05:35:54;;;;;;;9.48;3.90;;;6.70;99.90;;;;;;5071920;28;20045;-55
2022/04/20 05:43:49;;;;;;;8.23;4.32;;;6.80;99.90;;;;;;5071029;28;20407;-55
2022/04/20 05:46:16;;;;;;;9.55;3.80;;;6.80;99.90;;;;;;5071374;28;20048;-54
2022/04/20 05:48:42;;;;;;;6.53;3.83;;;6.90;99.90;;;;;;5071184;28;20508;-54
2022/04/20 05:51:08;;;;;;;10.43;3.70;;;7.00;99.90;;;;;;5071245;28;20040;-55
2022/04/20 05:53:34;;;;;;;7.68;3.83;;;7.10;99.90;;;;;;5069919;28;20082;-54
2022/04/20 05:55:59;;;;;;;8.77;3.95;;;7.10;99.90;;;;;;5071128;28;20045;-53
2022/04/20 05:58:25;;;;;;;8.43;4.20;;;7.20;99.90;;;;;;5071022;28;20042;-56
2022/04/20 06:00:51;;;;;;;8.98;4.05;;;7.30;99.90;;;;;;5071006;28;20048;-54
2022/04/20 06:03:16;;;;;;;8.63;4.10;;;7.30;99.90;;;;;;5071232;28;20032;-55
2022/04/20 06:05:42;;;;;;;8.13;4.25;;;7.30;99.90;;;;;;5053112;28;20064;-56
2022/04/20 06:08:08;;;;;;;10.15;4.60;;;7.30;99.90;;;;;;5070282;28;20047;-55
2022/04/20 06:10:34;;;;;;;7.25;4.05;;;7.40;99.90;;;;;;5070799;28;20043;-55
2022/04/20 06:13:00;;;;;;;8.48;4.28;;;7.40;99.90;;;;;;5070813;28;20048;-56
2022/04/20 06:15:25;;;;;;;7.88;3.85;;;7.60;99.90;;;;;;5070821;28;20036;-56
2022/04/20 06:17:51;;;;;;;7.68;4.00;;;7.60;99.90;;;;;;5070703;28;20040;-55
2022/04/20 06:20:17;;;;;;;9.07;4.35;;;7.70;99.90;;;;;;5071171;28;20037;-54
2022/04/20 06:22:43;;;;;;;7.97;4.60;;;7.70;99.90;;;;;;5065724;28;20114;-53
2022/04/20 06:25:09;;;;;;;7.28;4.47;;;7.80;99.90;;;;;;5049623;28;20048;-53
2022/04/20 06:27:35;;;;;;;7.65;4.13;;;7.90;99.90;;;;;;5050845;28;20464;-55
2022/04/20 06:30:01;;;;;;;10.20;4.43;;;8.10;99.90;;;;;;5050874;28;20084;-52
2022/04/20 06:32:27;;;;;;;9.15;4.70;;;8.10;99.90;;;;;;5050722;28;20123;-53
2022/04/20 06:34:54;;;;;;;9.68;5.05;;;8.10;99.90;;;;;;5050549;28;20048;-55
2022/04/20 06:37:22;;;;;;;13.90;4.63;;;8.10;99.90;;;;;;5050584;28;20052;-55
2022/04/20 06:39:49;;;;;;;8.43;4.20;;;8.20;99.90;;;;;;5050417;28;20057;-54
2022/04/20 06:42:15;;;;;;;8.95;5.35;;;8.20;99.90;;;;;;5050816;28;20073;-55
2022/04/20 06:44:41;;;;;;;9.98;4.65;;;8.40;99.90;;;;;;5064952;28;20558;-52
2022/04/20 06:47:07;;;;;;;10.18;5.18;;;8.40;99.90;;;;;;5070768;28;20433;-53
2022/04/20 06:49:33;;;;;;;7.95;4.32;;;8.50;99.90;;;;;;5070674;28;20044;-55
2022/04/20 07:00:12;;;;;;;10.23;5.20;;;8.80;99.90;;;;;;5049111;28;20044;-60
2022/04/20 07:02:38;;;;;;;9.70;4.80;;;8.80;99.90;;;;;;5048270;28;20045;-52
2022/04/20 07:05:05;;;;;;;8.30;5.15;;;8.90;99.90;;;;;;5033794;28;20045;-54
2022/04/20 07:07:30;;;;;;;8.18;4.93;;;9.00;99.90;;;;;;5038376;28;20044;-60
2022/04/20 07:09:56;;;;;;;9.85;5.15;;;9.20;99.90;;;;;;5022941;28;20051;-58
2022/04/20 07:12:22;;;;;;;9.40;5.38;;;9.30;99.90;;;;;;5032281;28;20080;-58
2022/04/20 07:14:48;;;;;;;8.82;4.70;;;9.30;99.90;;;;;;5036107;28;20051;-60
2022/04/20 07:17:15;;;;;;;10.82;5.38;;;9.40;99.90;;;;;;5037853;28;20120;-59
2022/04/20 07:19:40;;;;;;;7.97;3.97;;;9.50;99.90;;;;;;5038157;28;20511;-59
2022/04/20 07:22:06;;;;;;;8.77;4.57;;;9.60;99.90;;;;;;5040412;28;20037;-59
2022/04/20 07:24:31;;;;;;;10.52;4.78;;;9.80;99.90;;;;;;5040782;28;20041;-58
2022/04/20 07:26:57;;;;;;;10.00;4.68;;;9.90;99.90;;;;;;5048318;28;20507;-59
2022/04/20 07:29:23;;;;;;;10.35;4.40;;;10.10;99.90;;;;;;5038749;28;20666;-58
2022/04/20 07:31:49;;;;;;;9.25;3.92;;;10.10;99.90;;;;;;5044856;28;20078;-59
2022/04/20 07:34:14;;;;;;;7.78;4.00;;;10.10;99.90;;;;;;5039607;28;20045;-57
2022/04/20 07:36:40;;;;;;;6.82;3.92;;;10.30;99.90;;;;;;5038707;28;20041;-58
2022/04/20 07:39:05;;;;;;;9.40;3.80;;;10.30;99.90;;;;;;5040959;28;20049;-58
2022/04/20 07:41:31;;;;;;;8.52;3.85;;;10.30;99.90;;;;;;5040171;28;20090;-58
2022/04/20 07:43:57;;;;;;;8.35;4.05;;;10.40;99.90;;;;;;5037428;28;20409;-59
2022/04/20 07:46:22;;;;;;;9.98;3.65;;;10.40;99.90;;;;;;5038973;28;20048;-58
2022/04/20 07:48:48;;;;;;;7.32;4.00;;;10.50;99.90;;;;;;5038671;28;20049;-59
2022/04/20 07:51:17;;;;;;;7.65;3.83;;;10.60;99.90;;;;;;5037324;28;20080;-58
2022/04/20 07:53:42;;;;;;;8.00;3.97;;;10.60;99.90;;;;;;5037153;28;20052;-59
2022/04/20 07:56:08;;;;;;;9.85;4.30;;;10.90;99.90;;;;;;5040023;28;20039;-59
2022/04/20 07:58:34;;;;;;;8.15;3.55;;;10.80;99.90;;;;;;5036565;28;20083;-60
2022/04/20 08:00:59;;;;;;;7.43;3.83;;;10.90;99.90;;;;;;5034921;28;20090;-59
2022/04/20 08:03:25;;;;;;;7.32;3.80;;;10.90;99.90;;;;;;5040015;28;20049;-59
2022/04/20 08:05:53;;;;;;;6.93;3.75;;;11.00;99.90;;;;;;5035743;28;20709;-59
2022/04/20 08:08:20;;;;;;;8.38;3.72;;;11.10;99.90;;;;;;5037250;28;20127;-59
2022/04/20 08:10:46;;;;;;;8.27;3.90;;;11.10;99.90;;;;;;5035470;28;20115;-59
2022/04/20 08:15:56;;;;;;;9.43;4.00;;;11.40;99.90;;;;;;5042129;28;20239;-59
2022/04/20 08:18:23;;;;;;;7.88;3.67;;;11.40;99.90;;;;;;5039037;28;20040;-59
2022/04/20 08:20:49;;;;;;;9.32;3.13;;;11.60;99.90;;;;;;5040263;28;20284;-59
2022/04/20 08:23:15;;;;;;;8.50;3.38;;;11.60;99.90;;;;;;5039828;28;20128;-58
2022/04/20 08:25:42;;;;;;;7.70;3.53;;;11.60;99.90;;;;;;5040941;28;20037;-59
2022/04/20 08:28:09;;;;;;;6.60;3.40;;;11.70;99.90;;;;;;5034228;28;20503;-60
2022/04/20 08:30:35;;;;;;;11.32;4.30;;;11.70;99.90;;;;;;5034109;28;20138;-59
2022/04/20 08:33:01;;;;;;;7.70;2.63;;;11.80;99.90;;;;;;5035863;28;20402;-62
2022/04/20 08:35:27;;;;;;;5.93;2.58;;;11.80;99.90;;;;;;5032379;28;20126;-60
2022/04/20 08:37:53;;;;;;;7.40;2.53;;;11.90;99.90;;;;;;5035564;28;20025;-54
2022/04/20 08:40:19;;;;;;;5.80;2.60;;;12.00;99.90;;;;;;5047427;28;20069;-56
2022/04/20 08:42:49;;;;;;;6.65;2.80;;;12.20;99.90;;;;;;5052377;28;20079;-56
2022/04/20 08:45:16;;;;;;;9.75;2.70;;;12.30;99.90;;;;;;5071358;28;20052;-53
2022/04/20 08:47:44;;;;;;;5.43;2.25;;;12.30;99.90;;;;;;5072076;28;20040;-54
2022/04/20 08:50:10;;;;;;;5.30;2.00;;;12.30;99.90;;;;;;5072269;28;20657;-55
2022/04/20 08:52:37;;;;;;;5.93;2.13;;;12.30;99.90;;;;;;5072287;28;20036;-54
2022/04/20 08:55:04;;;;;;;7.50;1.98;;;12.30;99.90;;;;;;5072057;28;20553;-54
2022/04/20 08:57:32;;;;;;;5.07;2.28;;;12.40;99.90;;;;;;5070792;28;20075;-55
2022/04/20 09:00:00;;;;;;;5.38;2.05;;;12.40;99.50;;;;;;5071573;28;20045;-51
2022/04/20 09:02:28;;;;;;;5.72;2.00;;;12.40;98.40;;;;;;5071695;28;20047;-51
2022/04/20 09:04:55;;;;;;;4.50;1.95;;;12.50;98.90;;;;;;5070407;28;20060;-52
2022/04/20 09:07:21;;;;;;;4.90;1.70;;;12.60;97.90;;;;;;5056411;28;20046;-54
2022/04/20 09:09:46;;;;;;;6.53;2.15;;;12.70;97.90;;;;;;5039816;28;20045;-52
2022/04/20 09:12:17;;;;;;;5.30;1.90;;;12.70;97.60;;;;;;5040273;28;20083;-53
2022/04/20 09:14:45;;;;;;;8.43;2.53;;;12.70;97.00;;;;;;5039734;28;20032;-55
2022/04/20 09:17:16;;;;;;;5.75;1.80;;;12.80;97.00;;;;;;5042975;28;20037;-53
2022/04/20 09:19:42;;;;;;;4.72;1.70;;;12.80;95.70;;;;;;5035524;28;20127;-54
2022/04/20 09:22:22;;;;;;;5.93;2.53;;;12.80;95.10;;;;;;5032180;28;20048;-52
2022/04/20 09:24:58;;;;;;;4.88;1.50;;;12.80;93.70;;;;;;5051773;28;20065;-52
2022/04/20 09:27:28;;;;;;;4.63;1.60;;;13.00;94.20;;;;;;5051985;28;20070;-55
2022/04/20 09:29:57;;;;;;;5.90;1.67;;;13.10;93.60;;;;;;5052454;28;20041;-51
2022/04/20 09:32:35;;;;;;;4.50;1.75;;;13.30;93.80;;;;;;5051599;28;20427;-55
2022/04/20 09:35:05;;;;;;;4.50;1.70;;;13.30;93.90;;;;;;5051207;28;20120;-51
2022/04/20 09:37:32;;;;;;;3.67;1.15;;;13.20;93.20;;;;;;5050900;28;20041;-54
2022/04/20 09:39:58;;;;;;;6.53;1.67;;;13.30;92.40;;;;;;5052610;28;20095;-51
2022/04/20 09:42:27;;;;;;;3.85;1.55;;;13.30;90.40;;;;;;5051621;28;20389;-52
2022/04/20 09:44:55;;;;;;;5.32;1.77;;;13.40;91.00;;;;;;5068442;28;20055;-54
2022/04/20 09:50:11;;;;;;;4.22;1.75;;;13.50;86.70;;;;;;5072386;28;20049;-51
2022/04/20 09:52:42;;;;;;;4.35;1.65;;;13.50;88.10;;;;;;5072001;28;20047;-51
2022/04/20 09:55:11;;;;;;;3.85;1.60;;;13.50;88.30;;;;;;5072328;28;20404;-52
2022/04/20 09:57:37;;;;;;;3.33;1.45;;;13.60;87.80;;;;;;5071115;28;20032;-50
2022/04/20 10:00:04;;;;;;;2.97;1.30;;;13.70;89.30;;;;;;5072558;28;20040;-54
2022/04/20 10:02:35;;;;;;;6.15;1.80;;;13.70;86.90;;;;;;5071310;28;20501;-51
2022/04/20 10:05:03;;;;;;;4.07;1.35;;;13.80;89.50;;;;;;5072272;28;20049;-55
2022/04/20 10:07:28;;;;;;;3.97;1.40;;;13.80;86.90;;;;;;5072388;28;20040;-55
2022/04/20 10:09:54;;;;;;;5.10;1.30;;;13.90;85.90;;;;;;5071763;28;20062;-52
2022/04/20 10:12:22;;;;;;;6.22;1.50;;;13.80;83.90;;;;;;5070346;28;20202;-52
2022/04/20 10:17:43;;;;;;;3.95;1.48;;;13.90;84.30;;;;;;5071871;28;20101;-54
2022/04/20 10:20:09;;;;;;;4.13;1.63;;;13.90;84.70;;;;;;5071839;28;20032;-53
2022/04/20 10:22:37;;;;;;;4.38;1.65;;;14.10;83.70;;;;;;5067760;28;20552;-55
2022/04/20 10:25:04;;;;;;;5.13;1.60;;;14.20;86.30;;;;;;5051473;28;20770;-55
2022/04/20 10:27:49;;;;;;;4.45;1.50;;;14.30;86.10;;;;;;5051506;28;20126;-58
2022/04/20 10:30:48;;;;;;;5.65;1.92;;;14.30;82.70;;;;;;5051091;28;20060;-58
2022/04/20 10:33:19;;;;;;;5.35;1.50;;;14.30;82.20;;;;;;5057302;28;20083;-58
2022/04/20 10:35:55;;;;;;;4.45;1.52;;;14.40;85.00;;;;;;5058512;28;20086;-59
2022/04/20 10:38:21;;;;;;;3.35;1.60;;;14.50;83.70;;;;;;5059466;28;20067;-54
2022/04/20 10:40:59;;;;;;;4.03;1.90;;;14.40;83.80;;;;;;5061992;28;20041;-55
2022/04/20 10:43:26;;;;;;;5.38;1.45;;;14.40;81.40;;;;;;5059919;28;20044;-55
2022/04/20 10:46:16;;;;;;;6.35;1.67;;;14.60;84.20;;;;;;5060935;28;20445;-55
2022/04/20 10:49:14;;;;;;;5.90;1.80;;;14.60;80.90;;;;;;5056356;28;20529;-58
2022/04/20 10:51:42;;;;;;;9.73;1.77;;;14.80;82.90;;;;;;5057580;28;20091;-57
2022/04/20 10:54:27;;;;;;;4.38;1.70;;;14.80;84.30;;;;;;5063653;28;20045;-57
2022/04/20 10:57:02;;;;;;;6.13;1.50;;;14.90;81.60;;;;;;5074307;28;20071;-57
2022/04/20 10:59:30;;;;;;;4.40;1.55;;;14.80;78.90;;;;;;5075453;28;20044;-56
2022/04/20 11:01:59;;;;;;;6.22;1.92;;;14.90;81.00;;;;;;5074740;28;20489;-58
2022/04/20 11:04:37;;;;;;;5.47;2.03;;;14.90;82.10;;;;;;5073598;28;20442;-56
2022/04/20 11:07:03;;;;;;;5.13;1.80;;;15.00;84.00;;;;;;5075016;28;20133;-56
2022/04/20 11:09:48;;;;;;;7.95;1.92;;;15.20;84.00;;;;;;5074870;28;20493;-56
2022/04/20 11:18:38;;;;;;;4.55;1.70;;;15.20;82.70;;;;;;5075756;28;20052;-56
2022/04/20 11:21:04;;;;;;;4.75;1.50;;;15.30;85.00;;;;;;5075677;28;20041;-56
2022/04/20 11:24:07;;;;;;;4.00;1.40;;;15.20;84.30;;;;;;5063936;28;20520;-56
2022/04/20 11:26:37;;;;;;;4.45;1.40;;;15.30;83.10;;;;;;5055528;28;20110;-57
2022/04/20 11:29:17;;;;;;;3.75;1.40;;;15.40;84.50;;;;;;5055343;28;20067;-58
2022/04/20 11:31:48;;;;;;;3.67;1.40;;;15.40;83.70;;;;;;5055284;28;20072;-57
2022/04/20 11:34:16;;;;;;;3.70;1.50;;;15.30;84.00;;;;;;5055442;28;20037;-56
2022/04/20 11:36:51;;;;;;;5.03;1.40;;;15.40;84.90;;;;;;5055200;28;20481;-56
2022/04/20 11:39:19;;;;;;;5.25;1.48;;;15.40;84.30;;;;;;5055035;28;20092;-56
2022/04/20 11:41:50;;;;;;;3.30;1.23;;;15.60;86.00;;;;;;5054964;28;20048;-56
2022/04/20 11:44:20;;;;;;;4.32;1.40;;;15.80;85.80;;;;;;5070701;28;20044;-56
2022/04/20 11:46:46;;;;;;;4.43;1.30;;;15.70;83.60;;;;;;5055295;28;20128;-56
2022/04/20 11:49:12;;;;;;;3.42;1.25;;;15.70;83.80;;;;;;5054918;28;20068;-56
2022/04/20 11:51:43;;;;;;;3.88;1.50;;;15.80;84.10;;;;;;5055242;28;20045;-56
2022/04/20 11:54:08;;;;;;;3.70;1.40;;;15.90;84.50;;;;;;5054888;28;20075;-56
2022/04/20 11:56:39;;;;;;;3.58;1.27;;;15.80;82.00;;;;;;5070231;28;20080;-56
2022/04/20 11:59:08;;;;;;;3.92;1.20;;;15.80;84.20;;;;;;5054977;28;20053;-56
2022/04/20 12:01:35;;;;;;;5.18;1.60;;;15.80;83.50;;;;;;5054068;28;20079;-57
2022/04/20 12:04:15;;;;;;;4.22;1.30;;;15.80;82.60;;;;;;5053409;28;20056;-56
2022/04/20 12:06:44;;;;;;;3.80;1.50;;;15.80;83.00;;;;;;5052446;28;20056;-57
2022/04/20 12:09:10;;;;;;;5.25;1.40;;;16.00;82.80;;;;;;5053352;28;20045;-56
2022/04/20 12:11:36;;;;;;;9.25;1.60;;;16.00;84.50;;;;;;5042060;28;20393;-57
2022/04/20 12:14:03;;;;;;;3.72;1.40;;;16.10;83.40;;;;;;5069818;28;20508;-56
2022/04/20 12:16:34;;;;;;;4.03;1.30;;;16.10;83.80;;;;;;5054555;28;20079;-56
2022/04/20 12:19:00;;;;;;;4.60;1.50;;;16.10;82.90;;;;;;5054110;28;20041;-56
2022/04/20 12:21:37;;;;;;;4.57;1.58;;;16.10;83.80;;;;;;5053763;28;20041;-56
2022/04/20 12:24:03;;;;;;;3.88;1.23;;;16.20;82.80;;;;;;5038431;28;20124;-56
2022/04/20 12:26:30;;;;;;;3.55;1.40;;;16.20;82.30;;;;;;5049725;28;20052;-56
2022/04/20 12:29:03;;;;;;;4.90;1.40;;;16.20;81.10;;;;;;5034312;28;20520;-57
2022/04/20 12:31:29;;;;;;;3.53;1.23;;;16.30;82.80;;;;;;5034414;28;20041;-57
2022/04/20 12:34:09;;;;;;;3.40;1.05;;;16.30;82.30;;;;;;5032727;28;20486;-57
2022/04/20 12:37:06;;;;;;;3.15;1.23;;;16.40;83.30;;;;;;5034311;28;20079;-57
2022/04/20 12:39:32;;;;;;;3.55;1.20;;;16.30;81.60;;;;;;5032958;28;20049;-57
2022/04/20 12:42:10;;;;;;;2.75;1.13;;;16.20;80.50;;;;;;5031988;28;20091;-57
2022/04/20 12:44:37;;;;;;;3.38;1.30;;;16.30;81.20;;;;;;5061431;28;20048;-57
2022/04/20 12:47:11;;;;;;;4.55;1.50;;;16.50;83.90;;;;;;5074252;28;20045;-57
2022/04/20 12:49:44;;;;;;;4.70;1.58;;;16.40;83.00;;;;;;5073960;28;20123;-57
2022/04/20 12:52:16;;;;;;;5.43;1.50;;;16.30;82.30;;;;;;5072685;28;20474;-57
2022/04/20 12:54:54;;;;;;;6.28;2.50;;;16.40;83.00;;;;;;5073688;28;20077;-57
2022/04/20 13:03:20;;;;;;;8.90;3.33;;;16.10;92.90;;;;;;5073632;28;20405;-57
2022/04/20 13:05:46;;;;;;;8.38;3.80;;;16.00;94.90;;;;;;5073807;28;20044;-57
2022/04/20 13:08:13;;;;;;;7.85;3.35;;;16.00;95.60;;;;;;5072246;28;20036;-57
2022/04/20 13:10:43;;;;;;;8.15;3.45;;;16.00;95.50;;;;;;5073557;28;20373;-56
2022/04/20 13:13:10;;;;;;;6.88;3.15;;;16.10;95.50;;;;;;5073460;28;20029;-57
2022/04/20 13:15:36;;;;;;;9.30;3.40;;;16.00;95.20;;;;;;5073167;28;20047;-57
2022/04/20 13:18:02;;;;;;;7.32;3.53;;;15.90;95.60;;;;;;5072935;28;20033;-57
2022/04/20 13:20:29;;;;;;;7.13;3.45;;;15.90;95.70;;;;;;5072975;28;20036;-56
2022/04/20 13:22:56;;;;;;;7.05;3.58;;;15.70;95.40;;;;;;5066363;28;20048;-57
2022/04/20 13:28:06;;;;;;;7.32;3.40;;;15.70;95.80;;;;;;5068568;28;20044;-57
2022/04/20 13:30:37;;;;;;;6.00;2.95;;;15.70;96.40;;;;;;5053397;28;20044;-58
2022/04/20 13:33:03;;;;;;;8.32;3.50;;;15.80;97.00;;;;;;5053241;28;20379;-57
2022/04/20 13:35:29;;;;;;;6.90;3.03;;;15.70;96.90;;;;;;5053021;28;20048;-57
2022/04/20 13:37:55;;;;;;;8.27;3.33;;;15.60;96.30;;;;;;5052669;28;20509;-57